Hartford, Connecticut
Current Conditions -  °F | °C
As of 2:53 AM on Friday 19 Dec 2014 (Local Time) from KHFD Reporting Station
Overcast Overcast  
Wind Chill: 29°   Ceiling: 4300
Heat Index: 36°   Visibility: 10mi
Dew Point: 25°   Wind: 9mph
Humidity: 64%   Direction: 290°WNW
Pressure: 29.94"   Gusts: NA
Location:  41.76°N, 72.67°W
Report Text: KHFD 190753Z 29008KT 10SM FEW033 OVC043 02/M04 A2994 RMK AO2 SLP137 T00221039
Loading
Personal Weather Stations






























Interactive Weather Map New forecast layout! Learn more

10-Day Weather Forecast

Advertisements
Track Severe Weather on mobile